Time;durP1;ratioP1;P1;durP2;ratioP2;P2;SDS_P1;SDS_P2;PMS_P1;PMS_P2;Temp;Humidity;BMP_temperature;BMP_pressure;BME280_temperature;BME280_humidity;BME280_pressure;Samples;Min_cycle;Max_cycle;Signal;HPM_P1;HPM_P2
2021/05/26 00:01:41;;;;;;;7.50;6.15;;;;;;;;;;5074992;28;20024;-79
2021/05/26 00:04:08;;;;;;;6.63;6.03;;;;;;;;;;5093081;28;20058;-76
2021/05/26 00:06:34;;;;;;;9.57;5.63;;;;;;;;;;5093204;28;20400;-75
2021/05/26 00:09:01;;;;;;;6.07;5.20;;;;;;;;;;5092942;28;20491;-76
2021/05/26 00:11:27;;;;;;;6.20;5.60;;;;;;;;;;5074923;28;20027;-79
2021/05/26 00:13:53;;;;;;;6.90;5.43;;;;;;;;;;5093148;28;20028;-76
2021/05/26 00:16:22;;;;;;;5.78;5.28;;;;;;;;;;5092981;28;20386;-79
2021/05/26 00:18:48;;;;;;;6.35;5.32;;;;;;;;;;5093140;28;20024;-78
2021/05/26 00:21:14;;;;;;;6.68;6.07;;;;;;;;;;5092493;28;20036;-79
2021/05/26 00:23:40;;;;;;;6.55;5.93;;;;;;;;;;5093056;28;20467;-77
2021/05/26 00:26:06;;;;;;;7.93;6.22;;;;;;;;;;5092688;28;20059;-75
2021/05/26 00:28:32;;;;;;;5.95;5.40;;;;;;;;;;5074581;28;20135;-76
2021/05/26 00:31:00;;;;;;;6.97;6.35;;;;;;;;;;5092623;28;20071;-78
2021/05/26 00:33:26;;;;;;;6.65;5.97;;;;;;;;;;5092524;28;20474;-77
2021/05/26 00:35:52;;;;;;;6.22;5.38;;;;;;;;;;5092851;28;20020;-79
2021/05/26 00:38:20;;;;;;;6.65;5.70;;;;;;;;;;5092625;28;20107;-79
2021/05/26 00:40:47;;;;;;;6.47;5.88;;;;;;;;;;5092774;28;20036;-76
2021/05/26 00:43:14;;;;;;;6.78;6.07;;;;;;;;;;5092517;28;20470;-76
2021/05/26 00:45:40;;;;;;;6.53;6.03;;;;;;;;;;5092922;28;20089;-77
2021/05/26 00:48:07;;;;;;;7.03;6.10;;;;;;;;;;5074126;28;20391;-80
2021/05/26 00:50:34;;;;;;;6.85;5.68;;;;;;;;;;5092799;28;20036;-79
2021/05/26 00:53:01;;;;;;;7.45;5.40;;;;;;;;;;5092548;28;20161;-77
2021/05/26 00:55:27;;;;;;;7.60;6.32;;;;;;;;;;5092625;28;20028;-76
2021/05/26 00:57:54;;;;;;;6.80;5.55;;;;;;;;;;5092584;28;20391;-78
2021/05/26 01:00:22;;;;;;;6.78;5.80;;;;;;;;;;5092251;28;20394;-76
2021/05/26 01:02:52;;;;;;;6.45;5.70;;;;;;;;;;5092234;28;20024;-76
2021/05/26 01:05:18;;;;;;;6.30;5.70;;;;;;;;;;5091603;28;20407;-78
2021/05/26 01:07:45;;;;;;;7.53;5.75;;;;;;;;;;5092452;28;20031;-78
2021/05/26 01:10:12;;;;;;;7.05;6.25;;;;;;;;;;5092292;28;20099;-79
2021/05/26 01:12:38;;;;;;;6.93;5.72;;;;;;;;;;5092286;28;20082;-78
2021/05/26 01:15:13;;;;;;;5.85;5.13;;;;;;;;;;5092240;28;20020;-79
2021/05/26 01:17:40;;;;;;;5.70;5.10;;;;;;;;;;5092361;28;20035;-75
2021/05/26 01:20:07;;;;;;;5.75;5.25;;;;;;;;;;5092415;28;20499;-77
2021/05/26 01:22:33;;;;;;;5.97;5.45;;;;;;;;;;5092340;28;20027;-75
2021/05/26 01:25:00;;;;;;;5.93;5.40;;;;;;;;;;5092101;28;20055;-76
2021/05/26 01:27:26;;;;;;;6.22;5.63;;;;;;;;;;5092258;28;20036;-78
2021/05/26 01:29:54;;;;;;;6.65;5.32;;;;;;;;;;5092052;28;20103;-76
2021/05/26 01:32:20;;;;;;;6.20;5.55;;;;;;;;;;5092204;28;20032;-77
2021/05/26 01:34:46;;;;;;;6.97;5.95;;;;;;;;;;5092199;28;20096;-79
2021/05/26 01:37:12;;;;;;;8.05;5.97;;;;;;;;;;5091978;28;20024;-76
2021/05/26 01:39:38;;;;;;;6.28;5.70;;;;;;;;;;5092062;28;20059;-76
2021/05/26 01:42:05;;;;;;;6.28;5.68;;;;;;;;;;5091995;28;20106;-75
2021/05/26 01:44:34;;;;;;;6.72;6.10;;;;;;;;;;5091948;28;20390;-80
2021/05/26 01:47:00;;;;;;;7.03;5.60;;;;;;;;;;5091932;28;20046;-77
2021/05/26 01:49:27;;;;;;;7.57;5.97;;;;;;;;;;5091986;28;20023;-77
2021/05/26 01:51:53;;;;;;;6.55;5.72;;;;;;;;;;5092188;28;20020;-79
2021/05/26 01:54:19;;;;;;;7.45;6.07;;;;;;;;;;5091751;28;20053;-76
2021/05/26 01:56:45;;;;;;;6.22;5.63;;;;;;;;;;5091984;28;20036;-76
2021/05/26 01:59:12;;;;;;;6.65;5.95;;;;;;;;;;5091586;28;20024;-77
2021/05/26 02:01:38;;;;;;;6.18;5.57;;;;;;;;;;5092095;28;20028;-76
2021/05/26 02:04:04;;;;;;;6.55;5.93;;;;;;;;;;5091825;28;20024;-76
2021/05/26 02:06:32;;;;;;;7.38;6.03;;;;;;;;;;5091613;28;20026;-79
2021/05/26 02:08:58;;;;;;;7.20;6.50;;;;;;;;;;5091916;28;20031;-76
2021/05/26 02:14:09;;;;;;;5.97;5.45;;;;;;;;;;5091600;28;20500;-80
2021/05/26 02:16:36;;;;;;;7.10;5.80;;;;;;;;;;5093382;28;20105;-76
2021/05/26 02:19:03;;;;;;;6.22;5.45;;;;;;;;;;5095179;28;20523;-80
2021/05/26 02:21:29;;;;;;;6.65;5.85;;;;;;;;;;5095317;28;20120;-76
2021/05/26 02:23:55;;;;;;;6.82;6.13;;;;;;;;;;5095185;28;20041;-78
2021/05/26 02:26:21;;;;;;;7.18;5.90;;;;;;;;;;5095309;28;20027;-78
2021/05/26 02:28:47;;;;;;;7.00;6.38;;;;;;;;;;5095194;28;20028;-76
2021/05/26 02:31:13;;;;;;;6.70;6.10;;;;;;;;;;5095017;28;20020;-76
2021/05/26 02:33:39;;;;;;;7.55;6.35;;;;;;;;;;5094832;28;20398;-79
2021/05/26 02:36:06;;;;;;;6.43;5.78;;;;;;;;;;5076718;28;20034;-77
2021/05/26 02:38:32;;;;;;;8.10;6.45;;;;;;;;;;5094948;28;20462;-79
2021/05/26 02:40:59;;;;;;;6.53;5.90;;;;;;;;;;5094842;28;20047;-77
2021/05/26 02:43:25;;;;;;;7.00;6.32;;;;;;;;;;5094773;28;20048;-78
2021/05/26 02:45:51;;;;;;;10.57;6.88;;;;;;;;;;5094720;28;20094;-79
2021/05/26 02:48:18;;;;;;;7.50;6.85;;;;;;;;;;5076362;28;20387;-80
2021/05/26 02:50:44;;;;;;;9.30;7.05;;;;;;;;;;5094875;28;20024;-76
2021/05/26 02:53:10;;;;;;;7.07;6.38;;;;;;;;;;5094462;28;20039;-77
2021/05/26 02:55:36;;;;;;;9.70;6.18;;;;;;;;;;5094810;28;20059;-75
2021/05/26 02:58:03;;;;;;;7.57;6.47;;;;;;;;;;5094584;28;20052;-76
2021/05/26 03:00:29;;;;;;;7.35;6.30;;;;;;;;;;5094495;28;20033;-79
2021/05/26 03:02:55;;;;;;;7.45;6.70;;;;;;;;;;5094636;28;20030;-77
2021/05/26 03:05:22;;;;;;;7.88;6.45;;;;;;;;;;5094395;28;20446;-79
2021/05/26 03:07:48;;;;;;;8.50;6.47;;;;;;;;;;5094325;28;20029;-77
2021/05/26 03:10:15;;;;;;;6.53;5.70;;;;;;;;;;5094310;28;20071;-78
2021/05/26 03:12:42;;;;;;;9.52;5.97;;;;;;;;;;5094315;28;20031;-78
2021/05/26 03:15:09;;;;;;;8.52;5.97;;;;;;;;;;5094505;28;20103;-79
2021/05/26 03:17:35;;;;;;;7.95;6.03;;;;;;;;;;5094382;28;20032;-79
2021/05/26 03:20:04;;;;;;;7.15;6.03;;;;;;;;;;5076179;28;20471;-82
2021/05/26 03:22:30;;;;;;;11.55;6.50;;;;;;;;;;5093795;28;20121;-81
2021/05/26 03:24:56;;;;;;;6.68;6.18;;;;;;;;;;5094256;28;20099;-84
2021/05/26 03:27:26;;;;;;;8.30;7.45;;;;;;;;;;5093263;28;20073;-78
2021/05/26 03:29:53;;;;;;;10.55;8.32;;;;;;;;;;5093715;28;20032;-79
2021/05/26 03:32:19;;;;;;;12.23;8.30;;;;;;;;;;5093877;28;20035;-77
2021/05/26 03:34:45;;;;;;;10.57;9.05;;;;;;;;;;5093437;28;20048;-77
2021/05/26 03:37:14;;;;;;;15.02;10.77;;;;;;;;;;5093966;28;20450;-76
2021/05/26 03:39:40;;;;;;;14.60;11.70;;;;;;;;;;5093663;28;20111;-78
2021/05/26 03:42:07;;;;;;;15.25;11.45;;;;;;;;;;5093711;28;20054;-78
2021/05/26 03:44:34;;;;;;;16.92;11.27;;;;;;;;;;5093705;28;20076;-77
2021/05/26 03:47:00;;;;;;;14.40;11.40;;;;;;;;;;5093688;28;20031;-79
2021/05/26 03:49:26;;;;;;;16.35;11.27;;;;;;;;;;5093320;28;20032;-77
2021/05/26 03:51:52;;;;;;;12.10;10.90;;;;;;;;;;5093604;28;21147;-82
2021/05/26 03:54:19;;;;;;;15.80;11.40;;;;;;;;;;5093406;28;20038;-77
2021/05/26 03:56:45;;;;;;;12.82;11.52;;;;;;;;;;5093832;28;20034;-78
2021/05/26 03:59:11;;;;;;;13.18;11.35;;;;;;;;;;5093568;28;20020;-81
2021/05/26 04:01:38;;;;;;;18.40;10.23;;;;;;;;;;5093287;28;20470;-80
2021/05/26 04:04:04;;;;;;;14.25;10.30;;;;;;;;;;5093511;28;20383;-81
2021/05/26 04:06:30;;;;;;;12.25;10.05;;;;;;;;;;5093130;28;20031;-78
2021/05/26 04:08:57;;;;;;;13.43;10.05;;;;;;;;;;5093282;28;20058;-81
2021/05/26 04:11:24;;;;;;;11.52;9.68;;;;;;;;;;5093009;28;20020;-78
2021/05/26 04:13:50;;;;;;;11.90;9.38;;;;;;;;;;5092962;28;20024;-78
2021/05/26 04:16:16;;;;;;;10.63;8.70;;;;;;;;;;5092945;28;20023;-77
2021/05/26 04:18:42;;;;;;;10.73;8.15;;;;;;;;;;5092955;28;20024;-80
2021/05/26 04:21:08;;;;;;;11.18;7.22;;;;;;;;;;5092905;28;20120;-77
2021/05/26 04:23:34;;;;;;;14.35;7.90;;;;;;;;;;5092888;28;20472;-75
2021/05/26 04:26:01;;;;;;;9.00;7.65;;;;;;;;;;5093102;28;20024;-76
2021/05/26 04:28:27;;;;;;;9.73;6.95;;;;;;;;;;5092838;28;20050;-77
2021/05/26 04:30:53;;;;;;;12.10;8.27;;;;;;;;;;5092994;28;20032;-76
2021/05/26 04:33:19;;;;;;;11.27;7.20;;;;;;;;;;5092460;28;20027;-77
2021/05/26 04:35:45;;;;;;;11.13;8.15;;;;;;;;;;5092738;28;20078;-76
2021/05/26 04:38:12;;;;;;;10.68;7.20;;;;;;;;;;5092770;28;20035;-79
2021/05/26 04:40:38;;;;;;;8.45;6.80;;;;;;;;;;5103203;27;20038;-78
2021/05/26 04:43:04;;;;;;;9.40;6.20;;;;;;;;;;5092689;28;20035;-74
2021/05/26 04:45:30;;;;;;;11.35;6.40;;;;;;;;;;5092354;28;20020;-76
2021/05/26 04:47:57;;;;;;;13.25;6.43;;;;;;;;;;5106892;28;20394;-75
2021/05/26 04:50:24;;;;;;;8.93;6.00;;;;;;;;;;5113002;28;20019;-75
2021/05/26 04:52:54;;;;;;;12.48;6.15;;;;;;;;;;5112626;28;20340;-81
2021/05/26 04:55:20;;;;;;;30.58;7.65;;;;;;;;;;5094802;28;20494;-76
2021/05/26 04:57:46;;;;;;;11.90;6.13;;;;;;;;;;5112819;28;20072;-81
2021/05/26 05:00:13;;;;;;;11.45;5.53;;;;;;;;;;5094592;28;20032;-77
2021/05/26 05:02:39;;;;;;;8.63;5.22;;;;;;;;;;5108878;28;20479;-78
2021/05/26 05:05:05;;;;;;;8.13;5.65;;;;;;;;;;5101149;28;20102;-78
2021/05/26 05:07:31;;;;;;;5.75;4.43;;;;;;;;;;5092130;28;20032;-79
2021/05/26 05:09:57;;;;;;;12.38;5.68;;;;;;;;;;5092078;28;20020;-79
2021/05/26 05:12:23;;;;;;;7.82;5.63;;;;;;;;;;5090346;28;20104;-79
2021/05/26 05:14:49;;;;;;;6.30;4.63;;;;;;;;;;5092015;28;20418;-79
2021/05/26 05:17:16;;;;;;;6.68;5.10;;;;;;;;;;5092401;28;20035;-78
2021/05/26 05:19:42;;;;;;;9.75;4.68;;;;;;;;;;5102575;28;20459;-79
2021/05/26 05:22:08;;;;;;;12.70;5.25;;;;;;;;;;5112651;28;20028;-81
2021/05/26 05:24:34;;;;;;;9.35;4.40;;;;;;;;;;5112327;28;20481;-80
2021/05/26 05:27:00;;;;;;;13.82;4.97;;;;;;;;;;5090959;28;20024;-81
2021/05/26 05:29:26;;;;;;;9.93;4.95;;;;;;;;;;5100248;28;20444;-79
2021/05/26 05:31:52;;;;;;;6.85;4.00;;;;;;;;;;5091269;28;20028;-80
2021/05/26 05:34:19;;;;;;;7.70;3.65;;;;;;;;;;5092102;28;20445;-78
2021/05/26 05:36:45;;;;;;;11.52;4.25;;;;;;;;;;5093924;28;20491;-78
2021/05/26 05:39:11;;;;;;;8.27;3.50;;;;;;;;;;5110013;28;20086;-78
2021/05/26 05:41:37;;;;;;;8.70;5.53;;;;;;;;;;5111381;28;20074;-78
2021/05/26 05:44:03;;;;;;;5.07;3.67;;;;;;;;;;5091561;28;20024;-75
2021/05/26 05:46:29;;;;;;;7.20;3.70;;;;;;;;;;5091487;28;20035;-81
2021/05/26 05:48:55;;;;;;;7.50;4.05;;;;;;;;;;5091854;28;20494;-81
2021/05/26 05:51:21;;;;;;;7.45;4.15;;;;;;;;;;5093099;28;20514;-77
2021/05/26 05:53:47;;;;;;;13.07;4.20;;;;;;;;;;5077987;28;20158;-78
2021/05/26 05:56:14;;;;;;;6.22;3.63;;;;;;;;;;5077486;28;20051;-83
2021/05/26 05:58:42;;;;;;;5.53;3.65;;;;;;;;;;5077413;28;20038;-78
2021/05/26 06:01:08;;;;;;;8.00;3.50;;;;;;;;;;5110002;28;20119;-82
2021/05/26 06:03:35;;;;;;;7.88;3.25;;;;;;;;;;5115130;28;20094;-85
2021/05/26 06:06:01;;;;;;;11.25;3.60;;;;;;;;;;5114417;28;20385;-77
2021/05/26 06:08:27;;;;;;;6.70;3.72;;;;;;;;;;5104690;28;20023;-80
2021/05/26 06:10:53;;;;;;;7.75;3.30;;;;;;;;;;5091739;28;20035;-78
2021/05/26 06:13:19;;;;;;;6.22;3.78;;;;;;;;;;5113687;28;20024;-77
2021/05/26 06:15:45;;;;;;;5.63;2.97;;;;;;;;;;5114699;28;20036;-79
2021/05/26 06:18:11;;;;;;;5.00;2.85;;;;;;;;;;5114395;28;20024;-77
2021/05/26 06:20:37;;;;;;;8.20;2.75;;;;;;;;;;5114336;28;20039;-76
2021/05/26 06:23:04;;;;;;;10.35;3.35;;;;;;;;;;5114294;28;20019;-79
2021/05/26 06:25:30;;;;;;;5.35;3.33;;;;;;;;;;5095985;28;20543;-77
2021/05/26 06:27:56;;;;;;;4.20;2.50;;;;;;;;;;5113678;28;20023;-74
2021/05/26 06:30:22;;;;;;;6.13;2.88;;;;;;;;;;5114064;28;20034;-79
2021/05/26 06:32:48;;;;;;;4.35;3.10;;;;;;;;;;5114449;28;20467;-80
2021/05/26 06:35:14;;;;;;;8.93;3.30;;;;;;;;;;5107217;28;20044;-77
2021/05/26 06:37:42;;;;;;;5.43;2.85;;;;;;;;;;5093675;28;20028;-76
2021/05/26 06:40:08;;;;;;;5.85;2.92;;;;;;;;;;5093483;28;20035;-78
2021/05/26 06:42:35;;;;;;;6.13;2.75;;;;;;;;;;5093318;28;20063;-80
2021/05/26 06:45:01;;;;;;;6.85;3.08;;;;;;;;;;5093513;28;20024;-80
2021/05/26 06:47:27;;;;;;;3.20;2.90;;;;;;;;;;5093362;28;20683;-80
2021/05/26 06:49:54;;;;;;;6.35;3.45;;;;;;;;;;5093152;28;20028;-76
2021/05/26 06:52:20;;;;;;;8.52;3.70;;;;;;;;;;5092348;28;20475;-78
2021/05/26 06:54:46;;;;;;;7.18;2.92;;;;;;;;;;5092783;28;20031;-80
2021/05/26 06:57:12;;;;;;;9.45;3.13;;;;;;;;;;5093444;28;20378;-78
2021/05/26 06:59:38;;;;;;;6.57;2.95;;;;;;;;;;5096568;28;20076;-78
2021/05/26 07:02:04;;;;;;;11.27;3.53;;;;;;;;;;5113420;28;20053;-81
2021/05/26 07:04:30;;;;;;;8.00;3.08;;;;;;;;;;5112511;28;20565;-78
2021/05/26 07:06:56;;;;;;;9.63;4.25;;;;;;;;;;5113321;28;20027;-76
2021/05/26 07:09:22;;;;;;;5.75;2.70;;;;;;;;;;5113304;28;20024;-77
2021/05/26 07:11:49;;;;;;;5.30;2.67;;;;;;;;;;5113210;28;20441;-79
2021/05/26 07:14:15;;;;;;;7.68;3.03;;;;;;;;;;5113205;28;20026;-78
2021/05/26 07:16:41;;;;;;;7.82;3.08;;;;;;;;;;5113379;28;20043;-78
2021/05/26 07:19:07;;;;;;;7.43;3.55;;;;;;;;;;5113507;28;20053;-80
2021/05/26 07:21:33;;;;;;;5.93;3.10;;;;;;;;;;5112644;28;20505;-78
2021/05/26 07:24:00;;;;;;;7.50;3.45;;;;;;;;;;5112852;28;20028;-77
2021/05/26 07:26:26;;;;;;;6.03;2.92;;;;;;;;;;5112999;28;20031;-77
2021/05/26 07:28:52;;;;;;;6.97;2.60;;;;;;;;;;5112955;28;20047;-80
2021/05/26 07:31:18;;;;;;;5.43;2.85;;;;;;;;;;5113414;28;20023;-78
2021/05/26 07:33:45;;;;;;;4.70;2.58;;;;;;;;;;5112944;28;20389;-83
2021/05/26 07:36:14;;;;;;;4.88;2.65;;;;;;;;;;5112938;28;20062;-84
2021/05/26 07:38:41;;;;;;;6.95;2.40;;;;;;;;;;5112583;28;20424;-79
2021/05/26 07:41:07;;;;;;;7.07;2.70;;;;;;;;;;5112768;28;20031;-78
2021/05/26 07:43:33;;;;;;;9.05;3.35;;;;;;;;;;5112444;28;20092;-77
2021/05/26 07:46:03;;;;;;;4.10;2.65;;;;;;;;;;5112997;28;20028;-76
2021/05/26 07:48:31;;;;;;;12.43;8.60;;;;;;;;;;5112700;28;20031;-79
2021/05/26 07:50:57;;;;;;;7.15;2.42;;;;;;;;;;5094129;28;20034;-82
2021/05/26 07:53:24;;;;;;;4.43;2.42;;;;;;;;;;5112332;28;20395;-79
2021/05/26 07:55:50;;;;;;;6.25;3.22;;;;;;;;;;5094022;28;20031;-81
2021/05/26 07:58:16;;;;;;;5.60;3.05;;;;;;;;;;5112744;28;20020;-77
2021/05/26 08:00:42;;;;;;;4.47;2.17;;;;;;;;;;5111946;28;20040;-76
2021/05/26 08:03:08;;;;;;;8.90;2.50;;;;;;;;;;5112509;28;20030;-82
2021/05/26 08:05:34;;;;;;;3.85;2.28;;;;;;;;;;5112243;28;20031;-77
2021/05/26 08:08:00;;;;;;;4.95;2.85;;;;;;;;;;5096709;28;20479;-76
2021/05/26 08:10:27;;;;;;;7.00;2.80;;;;;;;;;;5096448;28;20024;-77
2021/05/26 08:12:53;;;;;;;4.53;2.70;;;;;;;;;;5110290;28;20070;-78
2021/05/26 08:15:19;;;;;;;5.47;2.90;;;;;;;;;;5091758;28;20134;-79
2021/05/26 08:17:45;;;;;;;6.88;3.67;;;;;;;;;;5096460;28;20247;-81
2021/05/26 08:20:12;;;;;;;5.38;2.55;;;;;;;;;;5112285;28;20086;-82
2021/05/26 08:22:38;;;;;;;4.65;2.65;;;;;;;;;;5093161;28;20015;-78
2021/05/26 08:25:04;;;;;;;5.35;2.40;;;;;;;;;;5093429;28;20042;-82
2021/05/26 08:27:31;;;;;;;4.28;3.00;;;;;;;;;;5100703;28;20375;-82
2021/05/26 08:30:00;;;;;;;4.70;2.67;;;;;;;;;;5091447;28;20024;-76
2021/05/26 08:32:26;;;;;;;4.65;3.13;;;;;;;;;;5091925;28;20034;-76
2021/05/26 08:34:55;;;;;;;6.10;3.05;;;;;;;;;;5091010;28;20087;-77
2021/05/26 08:37:21;;;;;;;5.38;2.60;;;;;;;;;;5073177;28;20020;-75
2021/05/26 08:39:47;;;;;;;8.35;2.95;;;;;;;;;;5091898;28;20489;-78
2021/05/26 08:42:15;;;;;;;5.90;3.55;;;;;;;;;;5092171;28;20030;-80
2021/05/26 08:44:41;;;;;;;5.03;2.83;;;;;;;;;;5091904;28;20051;-78
2021/05/26 08:47:12;;;;;;;3.75;3.13;;;;;;;;;;5096312;28;20115;-78
2021/05/26 08:49:43;;;;;;;4.93;2.42;;;;;;;;;;5093633;28;20107;-77
2021/05/26 08:52:09;;;;;;;4.97;2.88;;;;;;;;;;5108086;28;20111;-80
2021/05/26 08:54:35;;;;;;;4.10;3.00;;;;;;;;;;5111367;28;20039;-78
2021/05/26 08:57:01;;;;;;;8.05;3.38;;;;;;;;;;5093477;28;20031;-76
2021/05/26 08:59:27;;;;;;;4.47;3.35;;;;;;;;;;5111225;28;20030;-79
2021/05/26 09:01:54;;;;;;;4.88;3.30;;;;;;;;;;5111545;28;20089;-80
2021/05/26 09:04:33;;;;;;;6.65;3.65;;;;;;;;;;5111557;28;20462;-78
2021/05/26 09:07:29;;;;;;;5.75;2.97;;;;;;;;;;5111587;28;20087;-79
2021/05/26 09:09:57;;;;;;;7.13;3.25;;;;;;;;;;5099197;28;20552;-78
2021/05/26 09:12:25;;;;;;;5.38;3.08;;;;;;;;;;5109562;28;20080;-78
2021/05/26 09:14:51;;;;;;;5.63;3.60;;;;;;;;;;5101197;28;20099;-78
2021/05/26 09:17:17;;;;;;;8.77;5.13;;;;;;;;;;5098276;28;20020;-80
2021/05/26 09:19:44;;;;;;;8.23;3.17;;;;;;;;;;5111318;28;20038;-85
2021/05/26 09:22:14;;;;;;;7.72;3.33;;;;;;;;;;5111400;28;20146;-80
2021/05/26 09:24:40;;;;;;;7.60;3.10;;;;;;;;;;5111246;28;20069;-76
2021/05/26 09:27:08;;;;;;;4.47;3.25;;;;;;;;;;5113963;28;20035;-79
2021/05/26 09:29:42;;;;;;;4.88;3.00;;;;;;;;;;5115337;28;20038;-77
2021/05/26 09:32:13;;;;;;;6.47;3.45;;;;;;;;;;5102455;27;20106;-79
2021/05/26 09:34:40;;;;;;;4.28;3.75;;;;;;;;;;5097778;28;20498;-77
2021/05/26 09:37:06;;;;;;;5.28;3.63;;;;;;;;;;5115134;28;20065;-81
2021/05/26 09:39:53;;;;;;;5.45;3.50;;;;;;;;;;5096587;28;20031;-80
2021/05/26 09:42:31;;;;;;;4.65;3.80;;;;;;;;;;5115379;28;20028;-80
2021/05/26 09:45:16;;;;;;;7.82;4.10;;;;;;;;;;5111520;28;20066;-77
2021/05/26 09:48:01;;;;;;;8.05;4.65;;;;;;;;;;5115060;28;20049;-77
2021/05/26 09:50:27;;;;;;;5.60;3.63;;;;;;;;;;5115154;28;20028;-79
2021/05/26 09:52:54;;;;;;;6.07;3.97;;;;;;;;;;5100022;28;20041;-82
2021/05/26 09:55:24;;;;;;;7.18;4.03;;;;;;;;;;5094348;28;20054;-80
2021/05/26 09:57:51;;;;;;;6.03;4.18;;;;;;;;;;5094304;28;20047;-77
2021/05/26 10:00:18;;;;;;;8.60;4.13;;;;;;;;;;5103605;28;20036;-87
2021/05/26 10:02:45;;;;;;;6.25;4.40;;;;;;;;;;5096065;28;20027;-82
2021/05/26 10:05:15;;;;;;;6.78;4.13;;;;;;;;;;5094836;28;20094;-84
2021/05/26 10:07:41;;;;;;;6.43;4.32;;;;;;;;;;5084541;28;20755;-82
2021/05/26 10:10:11;;;;;;;5.93;4.85;;;;;;;;;;5114226;28;20378;-83
2021/05/26 10:12:39;;;;;;;6.13;4.80;;;;;;;;;;5102222;27;20027;-79
2021/05/26 10:15:07;;;;;;;8.02;4.65;;;;;;;;;;5111883;27;20052;-78
2021/05/26 10:17:38;;;;;;;7.13;5.00;;;;;;;;;;5127327;27;20022;-77
2021/05/26 10:20:12;;;;;;;7.88;4.93;;;;;;;;;;5113395;28;20032;-79
2021/05/26 10:22:38;;;;;;;7.25;5.15;;;;;;;;;;5111284;28;20115;-78
2021/05/26 10:25:11;;;;;;;7.53;4.80;;;;;;;;;;5113475;28;20028;-78
2021/05/26 10:27:39;;;;;;;6.25;4.72;;;;;;;;;;5106765;28;20046;-82
2021/05/26 10:30:07;;;;;;;8.85;5.15;;;;;;;;;;5114309;28;20414;-78
2021/05/26 10:33:03;;;;;;;6.57;4.45;;;;;;;;;;5113307;28;20020;-80
2021/05/26 10:35:30;;;;;;;7.00;5.22;;;;;;;;;;5096358;28;20043;-79
2021/05/26 10:38:15;;;;;;;7.40;4.70;;;;;;;;;;5113864;28;20034;-80
2021/05/26 10:41:01;;;;;;;8.05;5.32;;;;;;;;;;5112963;28;20038;-78
2021/05/26 10:43:28;;;;;;;8.57;5.68;;;;;;;;;;5113178;28;20055;-89
2021/05/26 10:45:55;;;;;;;5.57;5.03;;;;;;;;;;5113434;28;20112;-76
2021/05/26 10:48:39;;;;;;;7.88;5.70;;;;;;;;;;5111961;28;20055;-81
2021/05/26 10:51:06;;;;;;;8.57;5.43;;;;;;;;;;5101870;28;20027;-80
2021/05/26 10:53:50;;;;;;;6.18;4.82;;;;;;;;;;5098829;28;20479;-80
2021/05/26 10:56:36;;;;;;;8.13;4.97;;;;;;;;;;5099465;28;20035;-82
2021/05/26 10:59:22;;;;;;;5.63;4.88;;;;;;;;;;5093301;28;20036;-79
2021/05/26 11:04:50;;;;;;;7.90;5.15;;;;;;;;;;5092757;28;20090;-78
2021/05/26 11:07:19;;;;;;;8.48;5.13;;;;;;;;;;5093037;28;20124;-80
2021/05/26 11:09:56;;;;;;;7.47;5.82;;;;;;;;;;5092415;28;20103;-76
2021/05/26 11:12:22;;;;;;;8.02;5.45;;;;;;;;;;5093232;28;20028;-83
2021/05/26 11:14:53;;;;;;;9.02;5.10;;;;;;;;;;5093205;28;20421;-81
2021/05/26 11:17:21;;;;;;;7.00;4.93;;;;;;;;;;5093277;28;20036;-79
2021/05/26 11:19:48;;;;;;;6.45;5.70;;;;;;;;;;5092963;28;20502;-82
2021/05/26 11:22:15;;;;;;;7.70;5.88;;;;;;;;;;5075463;28;20137;-83
2021/05/26 11:25:00;;;;;;;5.70;5.20;;;;;;;;;;5092976;28;20028;-78
2021/05/26 11:27:27;;;;;;;7.32;4.93;;;;;;;;;;5093261;28;20032;-83
2021/05/26 11:32:39;;;;;;;11.23;7.22;;;;;;;;;;5092978;28;20566;-83
2021/05/26 11:35:06;;;;;;;9.00;6.63;;;;;;;;;;5091909;28;20092;-80
2021/05/26 11:37:34;;;;;;;7.30;6.00;;;;;;;;;;5092423;28;20077;-79
2021/05/26 11:40:02;;;;;;;9.45;5.35;;;;;;;;;;5092185;28;20028;-86
2021/05/26 11:42:29;;;;;;;7.70;5.43;;;;;;;;;;5092151;28;20031;-78
2021/05/26 11:44:59;;;;;;;7.13;5.32;;;;;;;;;;5092565;28;20024;-78
2021/05/26 11:47:44;;;;;;;8.00;5.90;;;;;;;;;;5092522;28;20058;-80
2021/05/26 11:50:16;;;;;;;7.60;5.75;;;;;;;;;;5091511;28;20028;-82
2021/05/26 11:52:47;;;;;;;7.60;6.25;;;;;;;;;;5103035;27;20023;-78
2021/05/26 11:55:17;;;;;;;6.10;5.50;;;;;;;;;;5105794;28;20024;-79
2021/05/26 11:57:44;;;;;;;8.07;6.22;;;;;;;;;;5112347;28;20029;-78
2021/05/26 12:00:11;;;;;;;6.00;5.40;;;;;;;;;;5104800;28;20036;-79
2021/05/26 12:02:53;;;;;;;8.73;5.93;;;;;;;;;;5098087;28;20026;-77
2021/05/26 12:05:34;;;;;;;9.02;6.60;;;;;;;;;;5111872;28;20023;-85
2021/05/26 12:08:01;;;;;;;6.57;5.30;;;;;;;;;;5112159;28;20028;-80
2021/05/26 12:10:30;;;;;;;6.55;5.30;;;;;;;;;;5106049;28;20084;-79
2021/05/26 12:13:00;;;;;;;9.35;4.90;;;;;;;;;;5099911;27;20050;-82
2021/05/26 12:15:28;;;;;;;9.57;5.05;;;;;;;;;;5112110;28;20562;-81
2021/05/26 12:17:54;;;;;;;7.15;4.93;;;;;;;;;;5103812;28;20036;-79
2021/05/26 12:20:21;;;;;;;5.90;4.95;;;;;;;;;;5111690;28;20039;-80
2021/05/26 12:22:49;;;;;;;6.22;4.75;;;;;;;;;;5090584;28;20122;-82
2021/05/26 12:25:16;;;;;;;6.15;4.85;;;;;;;;;;5109713;28;20474;-79
2021/05/26 12:27:44;;;;;;;7.03;5.15;;;;;;;;;;5111113;28;20019;-81
2021/05/26 12:30:26;;;;;;;7.93;5.10;;;;;;;;;;5110760;28;20024;-79
2021/05/26 12:32:57;;;;;;;5.88;5.05;;;;;;;;;;5107620;28;20035;-78
2021/05/26 12:35:25;;;;;;;5.95;5.32;;;;;;;;;;5100180;28;20499;-81
2021/05/26 12:37:52;;;;;;;9.55;5.22;;;;;;;;;;5110370;28;20020;-80
2021/05/26 12:40:28;;;;;;;9.88;5.32;;;;;;;;;;5111750;28;20028;-79
2021/05/26 12:42:55;;;;;;;5.50;4.90;;;;;;;;;;5106337;27;20032;-81
2021/05/26 12:45:24;;;;;;;9.70;7.30;;;;;;;;;;5104177;28;20063;-84
2021/05/26 12:47:50;;;;;;;10.10;6.10;;;;;;;;;;5095229;28;20059;-81
2021/05/26 12:50:17;;;;;;;6.15;5.30;;;;;;;;;;5100868;28;20471;-82
2021/05/26 12:52:45;;;;;;;7.00;5.13;;;;;;;;;;5106076;28;20039;-83
2021/05/26 12:55:12;;;;;;;7.28;4.90;;;;;;;;;;5109715;28;20111;-84
2021/05/26 12:57:41;;;;;;;7.38;5.47;;;;;;;;;;5102091;28;20058;-80
2021/05/26 13:00:08;;;;;;;8.60;5.28;;;;;;;;;;5099939;28;20110;-83
2021/05/26 13:02:40;;;;;;;7.63;4.85;;;;;;;;;;5102705;28;20036;-80
2021/05/26 13:05:11;;;;;;;7.53;5.28;;;;;;;;;;5084091;28;20090;-83
2021/05/26 13:07:44;;;;;;;7.38;5.68;;;;;;;;;;5095197;28;20027;-80
2021/05/26 13:10:18;;;;;;;7.40;4.63;;;;;;;;;;5093002;28;20363;-85
2021/05/26 13:12:45;;;;;;;6.38;5.45;;;;;;;;;;5099764;28;20159;-82
2021/05/26 13:15:23;;;;;;;8.82;5.03;;;;;;;;;;5094140;28;20494;-83
2021/05/26 13:17:50;;;;;;;6.22;4.90;;;;;;;;;;5074384;28;20360;-80
2021/05/26 13:20:18;;;;;;;10.07;5.60;;;;;;;;;;5096320;28;20028;-82
2021/05/26 13:22:44;;;;;;;6.18;5.38;;;;;;;;;;5091762;28;20051;-85
2021/05/26 13:25:10;;;;;;;8.25;5.57;;;;;;;;;;5101490;28;20035;-79
2021/05/26 13:27:40;;;;;;;6.80;5.13;;;;;;;;;;5108323;28;20027;-87
2021/05/26 13:30:07;;;;;;;7.95;5.38;;;;;;;;;;5094213;28;20540;-80
2021/05/26 13:32:33;;;;;;;8.13;4.72;;;;;;;;;;5091976;28;20399;-80
2021/05/26 13:34:59;;;;;;;7.07;5.65;;;;;;;;;;5092090;28;20040;-83
2021/05/26 13:37:25;;;;;;;6.97;5.20;;;;;;;;;;5091156;28;20031;-87
2021/05/26 13:39:51;;;;;;;11.95;5.65;;;;;;;;;;5092503;28;20032;-87
2021/05/26 13:42:17;;;;;;;6.88;5.47;;;;;;;;;;5092269;28;20035;-81
2021/05/26 13:44:43;;;;;;;8.95;5.70;;;;;;;;;;5092247;28;20082;-80
2021/05/26 13:47:09;;;;;;;7.43;5.20;;;;;;;;;;5092473;28;20036;-82
2021/05/26 13:49:35;;;;;;;8.07;5.10;;;;;;;;;;5092222;28;20544;-81
2021/05/26 13:52:03;;;;;;;6.18;4.63;;;;;;;;;;5092388;28;20048;-87
2021/05/26 13:54:29;;;;;;;7.10;5.20;;;;;;;;;;5074339;28;20073;-84
2021/05/26 13:56:55;;;;;;;5.35;4.78;;;;;;;;;;5074404;28;20437;-81
2021/05/26 13:59:21;;;;;;;6.45;5.05;;;;;;;;;;5091963;28;20028;-83
2021/05/26 14:01:47;;;;;;;6.50;5.32;;;;;;;;;;5092251;28;20098;-81
2021/05/26 14:04:14;;;;;;;8.93;5.10;;;;;;;;;;5092201;28;20024;-82
2021/05/26 14:06:41;;;;;;;9.40;4.90;;;;;;;;;;5073640;28;20433;-79
2021/05/26 14:09:07;;;;;;;7.25;5.45;;;;;;;;;;5091716;28;20382;-78
2021/05/26 14:11:33;;;;;;;7.68;5.68;;;;;;;;;;5091770;28;20020;-82
2021/05/26 14:13:59;;;;;;;8.63;5.80;;;;;;;;;;5095686;28;20032;-87
2021/05/26 14:16:26;;;;;;;6.55;5.00;;;;;;;;;;5095786;28;20403;-81
2021/05/26 14:18:52;;;;;;;8.70;7.05;;;;;;;;;;5095845;28;20031;-83
2021/05/26 14:21:21;;;;;;;6.78;5.38;;;;;;;;;;5095155;28;20158;-83
2021/05/26 14:23:47;;;;;;;10.45;7.68;;;;;;;;;;5095333;28;20043;-79
2021/05/26 14:26:13;;;;;;;6.28;5.20;;;;;;;;;;5095532;28;20066;-80
2021/05/26 14:28:39;;;;;;;8.02;5.00;;;;;;;;;;5095013;28;20030;-82
2021/05/26 14:31:06;;;;;;;6.38;5.15;;;;;;;;;;5095296;28;20024;-81
2021/05/26 14:33:32;;;;;;;5.65;4.75;;;;;;;;;;5077073;28;20028;-83
2021/05/26 14:35:59;;;;;;;6.47;5.50;;;;;;;;;;5094759;28;20040;-87
2021/05/26 14:41:12;;;;;;;6.85;5.00;;;;;;;;;;5094786;28;20046;-81
2021/05/26 14:46:43;;;;;;;6.88;5.05;;;;;;;;;;5095477;28;20481;-79
2021/05/26 14:49:10;;;;;;;8.38;5.22;;;;;;;;;;5077260;28;20111;-79
2021/05/26 14:51:36;;;;;;;7.38;5.10;;;;;;;;;;5105897;28;20192;-89
2021/05/26 14:54:03;;;;;;;7.30;4.95;;;;;;;;;;5116047;28;20027;-82
2021/05/26 14:56:29;;;;;;;5.82;4.35;;;;;;;;;;5115495;28;20056;-82
2021/05/26 14:58:55;;;;;;;10.27;4.80;;;;;;;;;;5114548;28;20449;-84